Selbyville, Delaware
Current Conditions -  °F | °C
As of 6:53 PM on Thursday 18 Dec 2014 (Local Time) from KOXB Reporting Station
Clear Clear  
Wind Chill: 30°   Ceiling: Unl
Heat Index: 34°   Visibility: 10mi
Dew Point: 23°   Wind: 5mph
Humidity: 64%   Direction: NA
Pressure: 30.09"   Gusts: NA
Location:  38.46°N, 75.22°W
Report Text: KOXB 182353Z AUTO VRB04KT 10SM CLR 01/M05 A3009 RMK AO2 SLP189 T00111050 10061 20011 51010 TSNO
Loading
Personal Weather Stations






























Interactive Weather Map New forecast layout! Learn more

10-Day Weather Forecast

Advertisements
Track Severe Weather on mobile